createdAt,value
2016-12-14T00:00:04.989Z,8.58
2016-12-14T00:00:45.455Z,8.52
2016-12-14T00:01:25.935Z,8.66
2016-12-14T00:02:06.408Z,8.53
2016-12-14T00:02:46.905Z,8.55
2016-12-14T00:03:27.360Z,8.55
2016-12-14T00:04:07.856Z,8.52
2016-12-14T00:04:48.307Z,8.53
2016-12-14T00:05:28.825Z,8.53
2016-12-14T00:06:09.280Z,8.6
2016-12-14T00:06:49.758Z,8.6
2016-12-14T00:07:30.223Z,8.52
2016-12-14T00:08:10.704Z,8.53
2016-12-14T00:08:51.184Z,8.53
2016-12-14T00:09:31.659Z,8.51
2016-12-14T00:10:12.148Z,8.46
2016-12-14T00:10:52.682Z,8.38
2016-12-14T00:11:33.103Z,8.41
2016-12-14T00:12:13.652Z,8.36
2016-12-14T00:12:54.124Z,8.34
2016-12-14T00:13:34.611Z,8.3
2016-12-14T00:14:15.116Z,8.3
2016-12-14T00:14:55.589Z,8.33
2016-12-14T00:15:36.057Z,8.33
2016-12-14T00:16:16.548Z,8.31
2016-12-14T00:16:57.041Z,8.24
2016-12-14T00:17:37.537Z,8.24
2016-12-14T00:18:18.016Z,8.23
2016-12-14T00:18:58.517Z,8.16
2016-12-14T00:19:38.991Z,8.16
2016-12-14T00:20:19.461Z,8.08
2016-12-14T00:20:59.977Z,8.12
2016-12-14T00:21:40.444Z,8.08
2016-12-14T00:22:20.932Z,8.08
2016-12-14T00:23:01.383Z,7.97
2016-12-14T00:23:41.889Z,8
2016-12-14T00:24:22.406Z,7.98
2016-12-14T00:25:02.865Z,8.03
2016-12-14T00:25:43.324Z,7.95
2016-12-14T00:26:23.801Z,7.93
2016-12-14T00:27:04.258Z,7.94
2016-12-14T00:27:44.702Z,7.95
2016-12-14T00:28:25.215Z,7.97
2016-12-14T00:29:05.687Z,7.8
2016-12-14T00:29:46.192Z,7.94
2016-12-14T00:30:26.692Z,7.93
2016-12-14T00:31:07.170Z,7.82
2016-12-14T00:31:47.682Z,7.83
2016-12-14T00:32:28.170Z,7.9
2016-12-14T00:33:08.655Z,7.82
2016-12-14T00:33:49.114Z,7.83
2016-12-14T00:34:29.629Z,7.82
2016-12-14T00:35:10.048Z,7.83
2016-12-14T00:35:50.509Z,7.8
2016-12-14T00:36:31.004Z,7.83
2016-12-14T00:37:11.462Z,7.83
2016-12-14T00:37:51.942Z,7.83
2016-12-14T00:38:32.423Z,7.8
2016-12-14T00:39:12.903Z,7.75
2016-12-14T00:39:53.404Z,7.76
2016-12-14T00:40:33.895Z,7.79
2016-12-14T00:41:14.335Z,7.77
2016-12-14T00:41:54.822Z,7.77
2016-12-14T00:42:35.294Z,7.76
2016-12-14T00:43:15.780Z,7.8
2016-12-14T00:43:56.249Z,7.77
2016-12-14T00:44:36.692Z,7.79
2016-12-14T00:45:17.212Z,7.8
2016-12-14T00:45:57.633Z,7.77
2016-12-14T00:46:38.115Z,7.79
2016-12-14T00:47:18.634Z,7.83
2016-12-14T00:47:59.096Z,7.82
2016-12-14T00:48:39.595Z,7.8
2016-12-14T00:49:20.087Z,7.85
2016-12-14T00:50:00.539Z,7.8
2016-12-14T00:50:41.041Z,7.8
2016-12-14T00:51:21.515Z,7.83
2016-12-14T00:52:01.949Z,7.88
2016-12-14T00:52:42.417Z,7.77
2016-12-14T00:53:22.903Z,7.9
2016-12-14T00:54:03.371Z,8
2016-12-14T00:54:43.853Z,7.97
2016-12-14T00:55:24.325Z,7.98
2016-12-14T00:56:04.794Z,7.93
2016-12-14T00:56:45.257Z,8.01
2016-12-14T00:57:25.818Z,7.98
2016-12-14T00:58:06.303Z,7.98
2016-12-14T00:58:46.777Z,7.97
2016-12-14T00:59:27.255Z,7.98
2016-12-14T01:00:07.706Z,8.01
2016-12-14T01:00:48.230Z,7.95
2016-12-14T01:01:28.649Z,7.98
2016-12-14T01:02:09.140Z,8.03
2016-12-14T01:02:49.621Z,8.05
2016-12-14T01:03:30.047Z,7.97
2016-12-14T01:04:10.544Z,8.12
2016-12-14T01:04:50.974Z,8.1
2016-12-14T01:05:31.478Z,8.06
2016-12-14T01:06:11.904Z,8.13
2016-12-14T01:06:52.352Z,8.2
2016-12-14T01:07:32.804Z,8.26
2016-12-14T01:08:13.278Z,8.2
2016-12-14T01:08:53.727Z,8.23
2016-12-14T01:09:34.210Z,8.27
2016-12-14T01:10:14.670Z,8.28
2016-12-14T01:10:55.159Z,8.27
2016-12-14T01:11:35.585Z,8.31
2016-12-14T01:12:16.091Z,8.34
2016-12-14T01:12:56.510Z,8.28
2016-12-14T01:13:37.016Z,8.3
2016-12-14T01:14:17.495Z,8.31
2016-12-14T01:14:57.974Z,8.31
2016-12-14T01:15:38.489Z,8.27
2016-12-14T01:16:18.948Z,8.31
2016-12-14T01:16:59.405Z,8.42
2016-12-14T01:17:39.878Z,8.36
2016-12-14T01:18:20.355Z,8.45
2016-12-14T01:19:00.824Z,8.41
2016-12-14T01:19:43.195Z,8.37
2016-12-14T01:20:23.694Z,8.53
2016-12-14T01:21:04.127Z,8.52
2016-12-14T01:21:44.630Z,8.44
2016-12-14T01:22:25.066Z,8.44
2016-12-14T01:23:05.671Z,8.45
2016-12-14T01:23:46.149Z,8.45
2016-12-14T01:24:26.594Z,8.48
2016-12-14T01:25:07.046Z,8.42
2016-12-14T01:25:47.565Z,8.48
2016-12-14T01:26:28.042Z,8.53
2016-12-14T01:27:08.519Z,8.48
2016-12-14T01:27:49.010Z,8.52
2016-12-14T01:28:29.521Z,8.51
2016-12-14T01:29:09.977Z,8.55
2016-12-14T01:29:50.446Z,8.52
2016-12-14T01:30:30.906Z,8.55
2016-12-14T01:31:11.391Z,8.56
2016-12-14T01:31:51.864Z,8.56
2016-12-14T01:32:32.370Z,8.52
2016-12-14T01:33:12.836Z,8.56
2016-12-14T01:33:53.366Z,8.55
2016-12-14T01:34:33.784Z,8.52
2016-12-14T01:35:14.250Z,8.52
2016-12-14T01:35:54.718Z,8.53
2016-12-14T01:36:35.214Z,8.58
2016-12-14T01:37:15.762Z,8.55
2016-12-14T01:37:56.253Z,8.49
2016-12-14T01:38:36.742Z,8.51
2016-12-14T01:39:17.222Z,8.45
2016-12-14T01:39:57.691Z,8.51
2016-12-14T01:40:38.199Z,8.38
2016-12-14T01:41:18.752Z,8.48
2016-12-14T01:41:59.226Z,8.49
2016-12-14T01:42:39.704Z,8.42
2016-12-14T01:43:20.175Z,8.45
2016-12-14T01:44:00.657Z,8.48
2016-12-14T01:44:41.085Z,8.38
2016-12-14T01:45:21.537Z,8.31
2016-12-14T01:46:01.989Z,8.33
2016-12-14T01:46:42.473Z,8.34
2016-12-14T01:47:22.962Z,8.3
2016-12-14T01:48:03.427Z,8.3
2016-12-14T01:48:43.889Z,8.33
2016-12-14T01:49:24.370Z,8.37
2016-12-14T01:50:04.864Z,8.34
2016-12-14T01:50:45.307Z,8.26
2016-12-14T01:51:25.998Z,8.33
2016-12-14T01:52:06.453Z,8.27
2016-12-14T01:52:46.935Z,8.23
2016-12-14T01:53:27.385Z,8.27
2016-12-14T01:54:07.871Z,8.27
2016-12-14T01:54:48.320Z,8.19
2016-12-14T01:55:28.814Z,8.3
2016-12-14T01:56:09.294Z,8.24
2016-12-14T01:56:49.741Z,8.18
2016-12-14T01:57:30.232Z,8.19
2016-12-14T01:58:10.725Z,8.19
2016-12-14T01:58:51.199Z,8.1
2016-12-14T01:59:31.663Z,8.13
2016-12-14T02:00:12.118Z,8.09
2016-12-14T02:00:52.609Z,8.16
2016-12-14T02:01:33.068Z,8.06
2016-12-14T02:02:13.510Z,8.1
2016-12-14T02:02:53.986Z,8.1
2016-12-14T02:03:34.470Z,8.13
2016-12-14T02:04:14.924Z,8.1
2016-12-14T02:04:55.404Z,8.12
2016-12-14T02:05:35.859Z,8.09
2016-12-14T02:06:16.349Z,8.01
2016-12-14T02:06:56.835Z,8.08
2016-12-14T02:07:37.318Z,8.09
2016-12-14T02:08:17.742Z,8.1
2016-12-14T02:10:18.221Z,8.12
2016-12-14T02:11:06.807Z,8.12
2016-12-14T02:11:55.272Z,8.03
2016-12-14T02:12:42.644Z,8.08
2016-12-14T02:13:31.399Z,8.06
2016-12-14T02:15:29.151Z,8.12
2016-12-14T02:16:17.366Z,8.06
2016-12-14T02:17:06.071Z,8.03
2016-12-14T02:17:50.542Z,8.05
2016-12-14T02:18:36.935Z,8
2016-12-14T02:19:17.443Z,8.05
2016-12-14T02:19:57.870Z,8.03
2016-12-14T02:20:38.326Z,7.97
2016-12-14T02:21:18.791Z,8
2016-12-14T02:21:59.247Z,8.03
2016-12-14T02:22:39.709Z,8.05
2016-12-14T02:23:20.208Z,8
2016-12-14T02:24:00.675Z,8.06
2016-12-14T02:24:41.158Z,8.08
2016-12-14T02:25:21.660Z,8.06
2016-12-14T02:26:02.114Z,8.03
2016-12-14T02:26:42.599Z,8.16
2016-12-14T02:27:23.048Z,8.05
2016-12-14T02:28:03.498Z,8.03
2016-12-14T02:28:43.968Z,8.01
2016-12-14T02:29:24.472Z,8.03
2016-12-14T02:30:05.008Z,8.03
2016-12-14T02:30:45.465Z,8.03
2016-12-14T02:31:25.996Z,8.06
2016-12-14T02:32:06.513Z,8.09
2016-12-14T02:32:46.967Z,8.08
2016-12-14T02:33:27.455Z,8
2016-12-14T02:34:07.915Z,8.06
2016-12-14T02:34:48.412Z,8.05
2016-12-14T02:35:28.872Z,8.01
2016-12-14T02:36:09.361Z,7.95
2016-12-14T02:36:49.827Z,8.08
2016-12-14T02:37:30.289Z,8.05
2016-12-14T02:38:10.773Z,7.95
2016-12-14T02:38:51.233Z,8.08
2016-12-14T02:39:31.696Z,8.05
2016-12-14T02:40:12.196Z,8.1
2016-12-14T02:40:52.656Z,8.05
2016-12-14T02:41:33.125Z,8.06
2016-12-14T02:42:13.680Z,8.03
2016-12-14T02:42:54.149Z,8
2016-12-14T02:43:34.607Z,8.03
2016-12-14T02:44:15.074Z,7.93
2016-12-14T02:44:55.554Z,8.01
2016-12-14T02:45:36.035Z,7.98
2016-12-14T02:46:16.515Z,7.98
2016-12-14T02:46:56.980Z,7.94
2016-12-14T02:47:37.475Z,7.98
2016-12-14T02:48:17.915Z,8.05
2016-12-14T02:48:58.405Z,8.03
2016-12-14T02:49:38.873Z,8
2016-12-14T02:50:19.340Z,7.98
2016-12-14T02:50:59.792Z,8.03
2016-12-14T02:51:40.254Z,8.03
2016-12-14T02:52:20.771Z,8.05
2016-12-14T02:53:01.184Z,8.01
2016-12-14T02:53:41.648Z,8.01
2016-12-14T02:54:22.131Z,7.98
2016-12-14T02:55:02.607Z,8.05
2016-12-14T02:55:43.063Z,8
2016-12-14T02:56:23.577Z,8.01
2016-12-14T02:57:04.021Z,8
2016-12-14T02:57:44.514Z,8.01
2016-12-14T02:58:24.970Z,8.05
2016-12-14T02:59:05.444Z,7.9
2016-12-14T02:59:45.939Z,7.9
2016-12-14T03:00:26.383Z,8.03
2016-12-14T03:01:06.871Z,7.87
2016-12-14T03:01:47.310Z,7.98
2016-12-14T03:02:27.829Z,7.9
2016-12-14T03:03:08.268Z,7.9
2016-12-14T03:03:48.858Z,7.97
2016-12-14T03:04:29.298Z,7.91
2016-12-14T03:05:09.788Z,7.9
2016-12-14T03:05:50.282Z,7.91
2016-12-14T03:06:30.769Z,7.91
2016-12-14T03:07:11.216Z,7.91
2016-12-14T03:07:51.669Z,7.93
2016-12-14T03:08:32.150Z,7.93
2016-12-14T03:09:12.619Z,8.03
2016-12-14T03:09:53.101Z,7.97
2016-12-14T03:10:33.539Z,7.91
2016-12-14T03:11:13.994Z,7.93
2016-12-14T03:11:54.462Z,7.94
2016-12-14T03:12:34.987Z,7.94
2016-12-14T03:13:15.411Z,7.9
2016-12-14T03:13:55.881Z,7.95
2016-12-14T03:14:36.367Z,7.85
2016-12-14T03:15:16.879Z,7.8
2016-12-14T03:15:57.315Z,7.88
2016-12-14T03:16:37.802Z,7.85
2016-12-14T03:17:18.271Z,7.8
2016-12-14T03:17:58.719Z,7.82
2016-12-14T03:18:39.192Z,7.94
2016-12-14T03:19:19.662Z,7.88
2016-12-14T03:20:00.110Z,7.93
2016-12-14T03:20:40.581Z,7.97
2016-12-14T03:21:21.090Z,7.79
2016-12-14T03:22:01.523Z,7.83
2016-12-14T03:22:41.998Z,7.94
2016-12-14T03:23:22.460Z,7.82
2016-12-14T03:24:02.888Z,7.83
2016-12-14T03:24:43.402Z,7.83
2016-12-14T03:25:23.878Z,7.85
2016-12-14T03:26:04.345Z,7.8
2016-12-14T03:26:44.805Z,7.79
2016-12-14T03:27:25.290Z,7.88
2016-12-14T03:28:05.762Z,7.87
2016-12-14T03:28:46.215Z,7.8
2016-12-14T03:29:26.711Z,7.83
2016-12-14T03:30:07.157Z,7.79
2016-12-14T03:30:47.618Z,7.83
2016-12-14T03:31:28.093Z,7.85
2016-12-14T03:32:08.630Z,7.77
2016-12-14T03:32:49.069Z,7.8
2016-12-14T03:33:29.548Z,7.85
2016-12-14T03:34:10.025Z,7.79
2016-12-14T03:34:50.655Z,7.8
2016-12-14T03:35:31.005Z,7.8
2016-12-14T03:36:11.444Z,7.85
2016-12-14T03:36:51.912Z,7.72
2016-12-14T03:37:32.380Z,7.75
2016-12-14T03:38:12.856Z,7.76
2016-12-14T03:38:53.308Z,7.79
2016-12-14T03:39:33.806Z,7.75
2016-12-14T03:40:14.299Z,7.76
2016-12-14T03:40:54.766Z,7.63
2016-12-14T03:41:35.238Z,7.69
2016-12-14T03:42:15.711Z,7.72
2016-12-14T03:42:56.170Z,7.69
2016-12-14T03:43:36.673Z,7.63
2016-12-14T03:44:17.093Z,7.67
2016-12-14T03:44:57.537Z,7.63
2016-12-14T03:45:38.068Z,7.76
2016-12-14T03:46:18.518Z,7.7
2016-12-14T03:46:59.078Z,7.75
2016-12-14T03:47:39.503Z,7.63
2016-12-14T03:48:19.972Z,7.67
2016-12-14T03:49:00.431Z,7.61
2016-12-14T03:49:40.911Z,7.69
2016-12-14T03:50:21.376Z,7.67
2016-12-14T03:51:01.884Z,7.63
2016-12-14T03:51:42.314Z,7.69
2016-12-14T03:52:22.781Z,7.67
2016-12-14T03:53:03.354Z,7.66
2016-12-14T03:53:43.807Z,7.67
2016-12-14T03:54:24.262Z,7.67
2016-12-14T03:55:04.721Z,7.53
2016-12-14T03:55:45.198Z,7.6
2016-12-14T03:56:25.679Z,7.6
2016-12-14T03:57:06.114Z,7.57
2016-12-14T03:57:46.596Z,7.48
2016-12-14T03:58:27.033Z,7.47
2016-12-14T03:59:07.489Z,7.6
2016-12-14T03:59:47.980Z,7.58
2016-12-14T04:00:28.454Z,7.61
2016-12-14T04:01:08.904Z,7.47
2016-12-14T04:01:49.369Z,7.51
2016-12-14T04:02:29.793Z,7.53
2016-12-14T04:03:10.265Z,7.48
2016-12-14T04:03:50.731Z,7.56
2016-12-14T04:04:31.200Z,7.6
2016-12-14T04:05:11.660Z,7.57
2016-12-14T04:05:52.125Z,7.58
2016-12-14T04:06:32.605Z,7.57
2016-12-14T04:07:13.052Z,7.57
2016-12-14T04:07:53.613Z,7.56
2016-12-14T04:08:33.998Z,7.63
2016-12-14T04:09:14.442Z,7.53
2016-12-14T04:09:54.948Z,7.66
2016-12-14T04:10:35.394Z,7.6
2016-12-14T04:11:16.112Z,7.61
2016-12-14T04:11:56.561Z,7.67
2016-12-14T04:12:36.996Z,7.63
2016-12-14T04:13:17.481Z,7.66
2016-12-14T04:13:57.935Z,7.61
2016-12-14T04:14:38.425Z,7.6
2016-12-14T04:15:18.908Z,7.61
2016-12-14T04:15:59.373Z,7.66
2016-12-14T04:16:39.833Z,7.66
2016-12-14T04:17:20.292Z,7.61
2016-12-14T04:18:00.747Z,7.67
2016-12-14T04:18:41.245Z,7.6
2016-12-14T04:19:21.712Z,7.58
2016-12-14T04:20:02.174Z,7.61
2016-12-14T04:20:42.626Z,7.6
2016-12-14T04:21:23.114Z,7.63
2016-12-14T04:22:03.607Z,7.63
2016-12-14T04:22:44.099Z,7.63
2016-12-14T04:23:24.590Z,7.6
2016-12-14T04:24:05.009Z,7.58
2016-12-14T04:24:45.479Z,7.63
2016-12-14T04:25:25.947Z,7.66
2016-12-14T04:26:06.443Z,7.6
2016-12-14T04:26:46.866Z,7.67
2016-12-14T04:27:27.339Z,7.63
2016-12-14T04:28:07.818Z,7.73
2016-12-14T04:28:48.273Z,7.75
2016-12-14T04:29:28.792Z,7.66
2016-12-14T04:30:09.207Z,7.72
2016-12-14T04:30:49.701Z,7.66
2016-12-14T04:31:30.112Z,7.69
2016-12-14T04:32:10.584Z,7.61
2016-12-14T04:32:51.095Z,7.66
2016-12-14T04:33:31.539Z,7.63
2016-12-14T04:34:12.010Z,7.63
2016-12-14T04:34:52.525Z,7.61
2016-12-14T04:35:32.959Z,7.56
2016-12-14T04:36:13.443Z,7.61
2016-12-14T04:36:53.895Z,7.63
2016-12-14T04:37:34.354Z,7.7
2016-12-14T04:38:14.827Z,7.6
2016-12-14T04:38:55.336Z,7.66
2016-12-14T04:39:35.772Z,7.66
2016-12-14T04:40:16.224Z,7.66
2016-12-14T04:40:56.708Z,7.66
2016-12-14T04:41:37.162Z,7.69
2016-12-14T04:42:17.635Z,7.58
2016-12-14T04:42:58.098Z,7.63
2016-12-14T04:43:38.547Z,7.58
2016-12-14T04:44:19.034Z,7.63
2016-12-14T04:44:59.494Z,7.56
2016-12-14T04:45:39.949Z,7.51
2016-12-14T04:46:20.393Z,7.58
2016-12-14T04:47:00.862Z,7.51
2016-12-14T04:47:41.323Z,7.63
2016-12-14T04:48:21.817Z,7.51
2016-12-14T04:49:02.264Z,7.57
2016-12-14T04:49:42.750Z,7.5
2016-12-14T04:50:23.218Z,7.57
2016-12-14T04:51:03.697Z,7.56
2016-12-14T04:51:44.167Z,7.53
2016-12-14T04:52:24.622Z,7.58
2016-12-14T04:53:05.048Z,7.51
2016-12-14T04:53:45.501Z,7.6
2016-12-14T04:54:25.994Z,7.66
2016-12-14T04:55:06.487Z,7.61
2016-12-14T04:55:46.965Z,7.66
2016-12-14T04:56:27.445Z,7.63
2016-12-14T04:57:07.903Z,7.6
2016-12-14T04:57:48.374Z,7.58
2016-12-14T04:58:28.883Z,7.67
2016-12-14T04:59:09.335Z,7.6
2016-12-14T04:59:49.802Z,7.69
2016-12-14T05:00:30.292Z,7.63
2016-12-14T05:01:10.763Z,7.66
2016-12-14T05:01:51.256Z,7.6
2016-12-14T05:02:31.676Z,7.63
2016-12-14T05:03:12.143Z,7.57
2016-12-14T05:03:52.600Z,7.56
2016-12-14T05:04:33.083Z,7.61
2016-12-14T05:05:13.551Z,7.63
2016-12-14T05:05:54.043Z,7.63
2016-12-14T05:06:34.503Z,7.61
2016-12-14T05:07:14.946Z,7.67
2016-12-14T05:07:55.428Z,7.6
2016-12-14T05:08:35.903Z,7.63
2016-12-14T05:09:16.367Z,7.58
2016-12-14T05:09:56.823Z,7.6
2016-12-14T05:10:37.280Z,7.69
2016-12-14T05:11:17.751Z,7.67
2016-12-14T05:11:58.232Z,7.63
2016-12-14T05:12:38.742Z,7.69
2016-12-14T05:13:19.199Z,7.63
2016-12-14T05:13:59.668Z,7.63
2016-12-14T05:14:40.121Z,7.63
2016-12-14T05:15:20.590Z,7.63
2016-12-14T05:16:01.039Z,7.61
2016-12-14T05:16:41.533Z,7.61
2016-12-14T05:17:22.055Z,7.63
2016-12-14T05:18:02.488Z,7.63
2016-12-14T05:18:42.953Z,7.63
2016-12-14T05:19:24.102Z,7.63
2016-12-14T05:20:05.312Z,7.58
2016-12-14T05:20:45.811Z,7.54
2016-12-14T05:21:26.300Z,7.51
2016-12-14T05:22:06.790Z,7.54
2016-12-14T05:22:47.278Z,7.54
2016-12-14T05:23:27.804Z,7.54
2016-12-14T05:24:08.284Z,7.54
2016-12-14T05:24:48.769Z,7.51
2016-12-14T05:25:29.269Z,7.63
2016-12-14T05:26:09.787Z,7.63
2016-12-14T05:26:50.261Z,7.58
2016-12-14T05:27:30.796Z,7.58
2016-12-14T05:28:11.272Z,7.48
2016-12-14T05:28:51.786Z,7.54
2016-12-14T05:29:32.248Z,7.63
2016-12-14T05:30:12.729Z,7.51
2016-12-14T05:32:26.963Z,7.63
2016-12-14T05:33:09.573Z,7.61
2016-12-14T05:33:49.750Z,7.5
2016-12-14T05:34:30.432Z,7.63
2016-12-14T05:35:10.894Z,7.5
2016-12-14T05:35:51.403Z,7.63
2016-12-14T05:36:31.898Z,7.63
2016-12-14T05:37:12.377Z,7.53
2016-12-14T05:37:52.902Z,7.61
2016-12-14T05:38:33.569Z,7.67
2016-12-14T05:39:14.981Z,7.6
2016-12-14T05:39:55.469Z,7.58
2016-12-14T05:40:36.045Z,7.58
2016-12-14T05:41:16.508Z,7.67
2016-12-14T05:41:57.056Z,7.58
2016-12-14T05:42:37.550Z,7.61
2016-12-14T05:43:18.019Z,7.67
2016-12-14T05:43:58.506Z,7.66
2016-12-14T05:44:39.006Z,7.63
2016-12-14T05:45:19.529Z,7.66
2016-12-14T05:46:00.046Z,7.69
2016-12-14T05:46:40.688Z,7.69
2016-12-14T05:47:21.205Z,7.66
2016-12-14T05:48:01.707Z,7.61
2016-12-14T05:48:42.203Z,7.63
2016-12-14T05:49:22.698Z,7.63
2016-12-14T05:50:03.212Z,7.66
2016-12-14T05:50:43.708Z,7.7
2016-12-14T05:51:24.209Z,7.7
2016-12-14T05:52:04.683Z,7.73
2016-12-14T05:52:45.201Z,7.7
2016-12-14T05:53:25.689Z,7.7
2016-12-14T05:54:06.202Z,7.72
2016-12-14T05:54:46.844Z,7.76
2016-12-14T05:55:27.314Z,7.73
2016-12-14T05:56:07.798Z,7.76
2016-12-14T05:56:48.358Z,7.8
2016-12-14T05:57:28.801Z,7.76
2016-12-14T05:58:09.292Z,7.7
2016-12-14T05:58:49.782Z,7.66
2016-12-14T05:59:30.252Z,7.73
2016-12-14T06:00:10.756Z,7.69
2016-12-14T06:00:51.242Z,7.77
2016-12-14T06:01:31.735Z,7.67
2016-12-14T06:02:12.234Z,7.67
2016-12-14T06:02:52.747Z,7.77
2016-12-14T06:03:33.895Z,7.69
2016-12-14T06:04:14.403Z,7.73
2016-12-14T06:04:54.882Z,7.79
2016-12-14T06:05:35.366Z,7.7
2016-12-14T06:06:15.860Z,7.69
2016-12-14T06:06:56.348Z,7.67
2016-12-14T06:07:36.851Z,7.73
2016-12-14T06:08:17.365Z,7.7
2016-12-14T06:08:58.530Z,7.7
2016-12-14T06:09:39.021Z,7.75
2016-12-14T06:10:19.502Z,7.76
2016-12-14T06:11:00.006Z,7.72
2016-12-14T06:11:40.497Z,7.8
2016-12-14T06:12:20.991Z,7.7
2016-12-14T06:13:01.491Z,7.76
2016-12-14T06:13:41.989Z,7.73
2016-12-14T06:14:22.474Z,7.7
2016-12-14T06:15:02.952Z,7.72
2016-12-14T06:15:43.422Z,7.75
2016-12-14T06:16:23.950Z,7.58
2016-12-14T06:17:04.443Z,7.7
2016-12-14T06:17:44.941Z,7.73
2016-12-14T06:18:25.412Z,7.69
2016-12-14T06:19:06.071Z,7.58
2016-12-14T06:19:46.549Z,7.61
2016-12-14T06:20:27.058Z,7.6
2016-12-14T06:21:07.593Z,7.66
2016-12-14T06:21:48.060Z,7.63
2016-12-14T06:22:28.559Z,7.57
2016-12-14T06:23:09.068Z,7.63
2016-12-14T06:23:49.551Z,7.58
2016-12-14T06:24:30.047Z,7.63
2016-12-14T06:25:10.521Z,7.63
2016-12-14T06:25:51.000Z,7.51
2016-12-14T06:26:31.516Z,7.58
2016-12-14T06:27:12.006Z,7.56
2016-12-14T06:27:52.511Z,7.61
2016-12-14T06:28:33.008Z,7.5
2016-12-14T06:29:13.510Z,7.58
2016-12-14T06:29:54.001Z,7.51
2016-12-14T06:30:34.486Z,7.54
2016-12-14T06:31:14.986Z,7.5
2016-12-14T06:31:55.484Z,7.51
2016-12-14T06:32:36.021Z,7.47
2016-12-14T06:33:16.481Z,7.43
2016-12-14T06:33:56.991Z,7.48
2016-12-14T06:34:37.491Z,7.51
2016-12-14T06:35:17.949Z,7.5
2016-12-14T06:35:58.466Z,7.45
2016-12-14T06:36:38.935Z,7.51
2016-12-14T06:37:19.430Z,7.43
2016-12-14T06:37:59.920Z,7.51
2016-12-14T06:38:40.403Z,7.45
2016-12-14T06:39:20.885Z,7.47
2016-12-14T06:40:01.372Z,7.51
2016-12-14T06:40:41.863Z,7.48
2016-12-14T06:41:22.381Z,7.47
2016-12-14T06:42:02.841Z,7.45
2016-12-14T06:42:43.335Z,7.5
2016-12-14T06:43:23.861Z,7.45
2016-12-14T06:44:04.355Z,7.48
2016-12-14T06:44:44.842Z,7.5
2016-12-14T06:45:25.326Z,7.4
2016-12-14T06:46:05.832Z,7.48
2016-12-14T06:46:46.305Z,7.51
2016-12-14T06:47:26.773Z,7.43
2016-12-14T06:48:07.278Z,7.48
2016-12-14T06:48:47.768Z,7.45
2016-12-14T06:49:28.240Z,7.43
2016-12-14T06:50:08.717Z,7.48
2016-12-14T06:50:49.227Z,7.51
2016-12-14T06:51:29.728Z,7.47
2016-12-14T06:52:10.214Z,7.47
2016-12-14T06:52:50.716Z,7.45
2016-12-14T06:53:31.204Z,7.51
2016-12-14T06:54:11.685Z,7.45
2016-12-14T06:54:52.172Z,7.45
2016-12-14T06:55:32.666Z,7.48
2016-12-14T06:56:13.175Z,7.45
2016-12-14T06:56:53.646Z,7.5
2016-12-14T06:57:34.702Z,7.54
2016-12-14T06:58:15.183Z,7.51
2016-12-14T06:58:55.692Z,7.53
2016-12-14T06:59:36.178Z,7.48
2016-12-14T07:00:16.675Z,7.51
2016-12-14T07:00:57.214Z,7.5
2016-12-14T07:01:37.717Z,7.47
2016-12-14T07:02:18.210Z,7.51
2016-12-14T07:02:58.709Z,7.53
2016-12-14T07:03:39.236Z,7.51
2016-12-14T07:04:19.700Z,7.53
2016-12-14T07:05:00.209Z,7.5
2016-12-14T07:05:40.699Z,7.51
2016-12-14T07:06:21.190Z,7.5
2016-12-14T07:07:01.695Z,7.48
2016-12-14T07:07:42.180Z,7.5
2016-12-14T07:08:22.705Z,7.5
2016-12-14T07:09:03.158Z,7.53
2016-12-14T07:09:43.635Z,7.48
2016-12-14T07:10:25.725Z,7.54
2016-12-14T07:11:06.204Z,7.5
2016-12-14T07:11:46.685Z,7.53
2016-12-14T07:12:27.154Z,7.5
2016-12-14T07:13:07.637Z,7.45
2016-12-14T07:13:48.146Z,7.51
2016-12-14T07:14:28.610Z,7.54
2016-12-14T07:15:09.091Z,7.51
2016-12-14T07:15:49.596Z,7.51
2016-12-14T07:16:30.086Z,7.5
2016-12-14T07:17:10.572Z,7.5
2016-12-14T07:17:51.047Z,7.57
2016-12-14T07:18:31.565Z,7.53
2016-12-14T07:19:12.059Z,7.5
2016-12-14T07:19:52.583Z,7.47
2016-12-14T07:20:33.075Z,7.48
2016-12-14T07:21:13.549Z,7.48
2016-12-14T07:21:54.034Z,7.43
2016-12-14T07:22:34.521Z,7.5
2016-12-14T07:23:15.000Z,7.5
2016-12-14T07:23:55.493Z,7.51
2016-12-14T07:24:36.005Z,7.5
2016-12-14T07:25:16.484Z,7.5
2016-12-14T07:25:56.984Z,7.51
2016-12-14T07:26:37.469Z,7.56
2016-12-14T07:27:17.956Z,7.48
2016-12-14T07:27:58.463Z,7.5
2016-12-14T07:28:38.964Z,7.63
2016-12-14T07:29:19.430Z,7.66
2016-12-14T07:29:59.930Z,7.48
2016-12-14T07:30:40.409Z,7.58
2016-12-14T07:31:20.911Z,7.6
2016-12-14T07:32:01.397Z,7.63
2016-12-14T07:32:41.914Z,7.67
2016-12-14T07:33:22.415Z,7.6
2016-12-14T07:34:04.456Z,7.6
2016-12-14T07:34:44.946Z,7.61
2016-12-14T07:35:25.435Z,7.63
2016-12-14T07:36:05.968Z,7.67
2016-12-14T07:36:46.430Z,7.61
2016-12-14T07:37:27.199Z,7.61
2016-12-14T07:38:07.705Z,7.61
2016-12-14T07:38:48.283Z,7.69
2016-12-14T07:39:29.848Z,7.61
2016-12-14T07:40:10.694Z,7.63
2016-12-14T07:40:51.465Z,7.63
2016-12-14T07:41:32.197Z,7.66
2016-12-14T07:42:14.192Z,7.66
2016-12-14T07:42:54.899Z,7.6
2016-12-14T07:43:35.688Z,7.66
2016-12-14T07:44:16.198Z,7.6
2016-12-14T07:44:56.680Z,7.72
2016-12-14T07:45:37.236Z,7.66
2016-12-14T07:46:17.749Z,7.7
2016-12-14T07:46:58.246Z,7.66
2016-12-14T07:47:38.873Z,7.75
2016-12-14T07:48:19.417Z,7.73
2016-12-14T07:49:00.091Z,7.61
2016-12-14T07:49:40.595Z,7.72
2016-12-14T07:50:21.100Z,7.7
2016-12-14T07:51:01.599Z,7.75
2016-12-14T07:51:42.101Z,7.69
2016-12-14T07:52:22.646Z,7.58
2016-12-14T07:53:03.168Z,7.72
2016-12-14T07:53:43.676Z,7.6
2016-12-14T07:54:24.165Z,7.58
2016-12-14T07:55:04.658Z,7.69
2016-12-14T07:55:45.197Z,7.75
2016-12-14T07:56:25.703Z,7.72
2016-12-14T07:57:06.187Z,7.66
2016-12-14T07:57:46.709Z,7.69
2016-12-14T07:58:27.144Z,7.69
2016-12-14T07:59:07.679Z,7.63
2016-12-14T07:59:48.157Z,7.67
2016-12-14T08:00:28.664Z,7.75
2016-12-14T08:01:09.147Z,7.67
2016-12-14T08:01:49.672Z,7.7
2016-12-14T08:02:30.207Z,7.69
2016-12-14T08:03:10.738Z,7.69
2016-12-14T08:03:51.181Z,7.66
2016-12-14T08:04:31.718Z,7.73
2016-12-14T08:05:12.301Z,7.76
2016-12-14T08:05:53.609Z,7.72
2016-12-14T08:06:34.703Z,7.7
2016-12-14T08:07:15.641Z,7.66
2016-12-14T08:07:56.973Z,7.72
2016-12-14T08:08:38.689Z,7.7
2016-12-14T08:10:32.269Z,7.69
2016-12-14T08:11:12.866Z,7.73
2016-12-14T08:11:53.352Z,7.77
2016-12-14T08:12:33.847Z,7.69
2016-12-14T08:13:14.397Z,7.75
2016-12-14T08:13:54.930Z,7.7
2016-12-14T08:14:35.657Z,7.67
2016-12-14T08:15:16.174Z,7.7
2016-12-14T08:15:56.974Z,7.8
2016-12-14T08:16:37.505Z,7.72
2016-12-14T08:17:18.028Z,7.7
2016-12-14T08:17:58.593Z,7.79
2016-12-14T08:18:39.228Z,7.73
2016-12-14T08:19:19.738Z,7.73
2016-12-14T08:20:00.429Z,7.77
2016-12-14T08:20:41.082Z,7.7
2016-12-14T08:21:21.586Z,7.66
2016-12-14T08:22:02.217Z,7.7
2016-12-14T08:22:42.842Z,7.7
2016-12-14T08:23:23.477Z,7.77
2016-12-14T08:24:04.267Z,7.79
2016-12-14T08:24:44.762Z,7.77
2016-12-14T08:25:25.249Z,7.8
2016-12-14T08:26:05.767Z,7.8
2016-12-14T08:26:46.249Z,7.83
2016-12-14T08:27:26.732Z,7.8
2016-12-14T08:28:07.228Z,7.8
2016-12-14T08:28:47.730Z,7.82
2016-12-14T08:29:28.318Z,7.7
2016-12-14T08:30:08.795Z,7.85
2016-12-14T08:30:49.278Z,7.8
2016-12-14T08:31:29.866Z,7.82
2016-12-14T08:32:10.389Z,7.69
2016-12-14T08:32:50.862Z,7.79
2016-12-14T08:33:31.338Z,7.85
2016-12-14T08:34:11.841Z,7.77
2016-12-14T08:34:52.329Z,7.8
2016-12-14T08:35:32.833Z,7.75
2016-12-14T08:36:13.404Z,7.79
2016-12-14T08:36:53.947Z,7.67
2016-12-14T08:37:34.391Z,7.76
2016-12-14T08:38:15.466Z,7.8
2016-12-14T08:38:55.981Z,7.8
2016-12-14T08:39:36.471Z,7.76
2016-12-14T08:40:16.951Z,7.8
2016-12-14T08:40:57.516Z,7.77
2016-12-14T08:42:46.609Z,7.8
2016-12-14T08:43:26.925Z,7.8
2016-12-14T08:44:07.393Z,7.79
2016-12-14T08:44:47.873Z,7.72
2016-12-14T08:45:28.379Z,7.83
2016-12-14T08:46:08.881Z,7.83
2016-12-14T08:46:49.376Z,7.82
2016-12-14T08:47:30.008Z,7.77
2016-12-14T08:48:10.621Z,7.79
2016-12-14T08:48:51.183Z,7.79
2016-12-14T08:49:31.681Z,7.82
2016-12-14T08:50:12.163Z,7.79
2016-12-14T08:50:52.667Z,7.82
2016-12-14T08:51:33.151Z,7.79
2016-12-14T08:52:13.652Z,7.77
2016-12-14T08:52:54.189Z,7.82
2016-12-14T08:53:37.304Z,7.75
2016-12-14T08:54:17.817Z,7.82
2016-12-14T08:54:58.294Z,7.83
2016-12-14T08:55:39.773Z,7.79
2016-12-14T08:56:20.243Z,7.79
2016-12-14T08:57:00.774Z,7.75
2016-12-14T08:57:41.242Z,7.83
2016-12-14T08:58:21.742Z,7.77
2016-12-14T08:59:02.220Z,7.82
2016-12-14T08:59:42.716Z,7.8
2016-12-14T09:00:23.224Z,7.82
2016-12-14T09:01:03.702Z,7.76
2016-12-14T09:01:44.230Z,7.77
2016-12-14T09:02:24.668Z,7.76
2016-12-14T09:03:05.177Z,7.82
2016-12-14T09:03:45.692Z,7.82
2016-12-14T09:04:28.133Z,7.77
2016-12-14T09:05:09.313Z,7.76
2016-12-14T09:05:49.799Z,7.8
2016-12-14T09:06:30.289Z,7.8
2016-12-14T09:07:10.787Z,7.76
2016-12-14T09:07:51.351Z,7.79
2016-12-14T09:08:31.949Z,7.83
2016-12-14T09:09:12.417Z,7.82
2016-12-14T09:09:53.635Z,7.82